Time;durP1;ratioP1;P1;durP2;ratioP2;P2;SDS_P1;SDS_P2;PMS_P1;PMS_P2;Temp;Humidity;BMP_temperature;BMP_pressure;BME280_temperature;BME280_humidity;BME280_pressure;Samples;Min_cycle;Max_cycle;Signal;HPM_P1;HPM_P2
2022/11/21 00:00:42;;;;;;;34.23;14.00;;;-5.80;99.90;;;;;;8368612;28;20200;-81
2022/11/21 00:04:43;;;;;;;31.57;14.30;;;-5.70;99.90;;;;;;8368809;28;20203;-79
2022/11/21 00:08:45;;;;;;;31.43;14.10;;;-5.50;99.90;;;;;;8371706;28;20283;-80
2022/11/21 00:12:46;;;;;;;35.00;15.07;;;-5.30;99.90;;;;;;8372330;28;20218;-80
2022/11/21 00:16:47;;;;;;;33.40;15.73;;;-5.10;99.90;;;;;;8374255;28;20188;-78
2022/11/21 00:20:50;;;;;;;29.93;13.97;;;-4.80;99.90;;;;;;8375752;28;20192;-79
2022/11/21 00:24:51;;;;;;;32.40;13.47;;;-4.50;99.90;;;;;;8375522;28;20201;-79
2022/11/21 00:28:52;;;;;;;28.13;13.47;;;-4.30;99.90;;;;;;8375081;28;20237;-81
2022/11/21 00:32:53;;;;;;;28.00;13.97;;;-4.10;99.90;;;;;;8376724;28;20224;-80
2022/11/21 00:36:54;;;;;;;33.40;15.67;;;-3.90;99.90;;;;;;8371418;28;20212;-79
2022/11/21 00:40:55;;;;;;;27.90;13.53;;;-3.80;99.90;;;;;;8366949;28;20185;-78
2022/11/21 00:44:58;;;;;;;30.30;15.47;;;-3.70;99.90;;;;;;8373699;28;20192;-79
2022/11/21 00:48:58;;;;;;;32.33;17.03;;;-3.60;99.90;;;;;;8368323;28;20189;-78
2022/11/21 00:52:59;;;;;;;31.40;14.77;;;-3.40;99.90;;;;;;8372704;28;20292;-79
2022/11/21 00:57:00;;;;;;;29.70;13.93;;;-3.30;99.90;;;;;;8367095;28;20201;-79
2022/11/21 01:01:13;;;;;;;28.10;15.03;;;-3.20;99.90;;;;;;8371191;28;20182;-80
2022/11/21 01:05:14;;;;;;;22.67;12.00;;;-3.10;99.90;;;;;;8372638;28;20191;-80
2022/11/21 01:09:16;;;;;;;32.83;15.70;;;-3.00;99.90;;;;;;8368058;28;20182;-79
2022/11/21 01:13:17;;;;;;;27.83;14.27;;;-2.90;99.90;;;;;;8366876;28;20213;-82
2022/11/21 01:17:17;;;;;;;28.07;13.93;;;-2.90;99.90;;;;;;8371596;28;20177;-79
2022/11/21 01:21:21;;;;;;;28.37;13.60;;;-2.80;99.90;;;;;;8377778;28;20183;-79
2022/11/21 01:25:22;;;;;;;25.57;13.83;;;-2.70;99.90;;;;;;8372514;28;20178;-79
2022/11/21 01:29:23;;;;;;;28.80;13.87;;;-2.60;99.90;;;;;;8376203;28;20213;-78
2022/11/21 01:33:24;;;;;;;28.10;13.47;;;-2.60;99.90;;;;;;8385178;28;20256;-81
2022/11/21 01:37:25;;;;;;;26.07;12.73;;;-2.50;99.90;;;;;;8371469;28;20260;-79
2022/11/21 01:41:34;;;;;;;24.20;11.63;;;-2.50;99.90;;;;;;8368288;28;20214;-80
2022/11/21 01:45:50;;;;;;;27.30;12.83;;;-2.40;99.90;;;;;;8363537;28;20366;-78
2022/11/21 01:49:52;;;;;;;22.00;11.13;;;-2.40;99.90;;;;;;8371192;28;20195;-79
2022/11/21 01:54:16;;;;;;;24.17;13.07;;;-2.30;99.90;;;;;;8366469;28;20212;-80
2022/11/21 01:58:17;;;;;;;24.37;11.77;;;-2.30;99.90;;;;;;8371877;28;20213;-79
2022/11/21 02:02:22;;;;;;;20.10;10.73;;;-2.20;99.90;;;;;;8363649;28;20181;-79
2022/11/21 02:06:24;;;;;;;19.17;10.30;;;-2.20;99.90;;;;;;8381646;28;20183;-79
2022/11/21 02:10:26;;;;;;;20.33;10.23;;;-2.10;99.90;;;;;;8386800;28;20190;-79
2022/11/21 02:14:27;;;;;;;18.80;10.00;;;-2.10;99.90;;;;;;8375946;28;20180;-79
2022/11/21 02:18:28;;;;;;;19.43;9.93;;;-2.10;99.90;;;;;;8371366;28;20278;-79
2022/11/21 02:22:50;;;;;;;17.07;9.67;;;-2.00;99.90;;;;;;8376762;28;20203;-79
2022/11/21 02:26:51;;;;;;;16.07;9.30;;;-2.00;99.90;;;;;;8372780;28;20188;-79
2022/11/21 02:30:52;;;;;;;30.53;13.60;;;-1.90;99.90;;;;;;8378319;28;20300;-79
2022/11/21 02:34:53;;;;;;;35.47;14.63;;;-1.80;99.90;;;;;;8374210;28;20483;-78
2022/11/21 02:38:53;;;;;;;45.90;21.03;;;-1.80;99.90;;;;;;8371251;28;20192;-78
2022/11/21 02:43:18;;;;;;;30.00;14.37;;;-1.70;99.90;;;;;;8374152;28;20220;-78
2022/11/21 02:47:21;;;;;;;24.53;13.10;;;-1.70;99.90;;;;;;8375920;28;20413;-78
2022/11/21 02:51:22;;;;;;;22.20;11.27;;;-1.70;99.90;;;;;;8369019;28;20211;-78
2022/11/21 02:55:24;;;;;;;19.60;10.13;;;-1.70;99.90;;;;;;8370723;28;20181;-78
2022/11/21 02:59:25;;;;;;;24.67;11.03;;;-1.60;99.90;;;;;;8361849;28;20250;-79
2022/11/21 03:03:25;;;;;;;23.20;11.37;;;-1.60;99.90;;;;;;8369623;28;20192;-78
2022/11/21 03:07:26;;;;;;;18.47;10.67;;;-1.60;99.90;;;;;;8367219;28;20227;-78
2022/11/21 03:11:27;;;;;;;16.87;9.53;;;-1.50;99.90;;;;;;8374109;28;20208;-77
2022/11/21 03:15:31;;;;;;;20.40;9.67;;;-1.50;99.90;;;;;;8370907;28;20204;-78
2022/11/21 03:19:32;;;;;;;19.70;11.60;;;-1.50;99.90;;;;;;8370474;28;20223;-79
2022/11/21 03:23:32;;;;;;;21.13;11.43;;;-1.40;99.90;;;;;;8372215;28;20181;-78
2022/11/21 03:27:33;;;;;;;23.13;12.57;;;-1.40;99.90;;;;;;8365646;28;20212;-77
2022/11/21 03:31:34;;;;;;;23.97;11.43;;;-1.40;99.90;;;;;;8365777;28;20216;-78
2022/11/21 03:35:35;;;;;;;22.97;10.87;;;-1.40;99.90;;;;;;8375173;28;20192;-77
2022/11/21 03:39:38;;;;;;;23.97;12.90;;;-1.40;99.90;;;;;;8375647;28;20177;-78
2022/11/21 03:43:39;;;;;;;25.73;12.37;;;-1.40;99.90;;;;;;8372403;28;20279;-79
2022/11/21 03:47:40;;;;;;;24.90;12.30;;;-1.40;99.90;;;;;;8367494;28;20189;-78
2022/11/21 03:51:41;;;;;;;24.13;12.87;;;-1.40;99.90;;;;;;8366871;28;20194;-78
2022/11/21 03:55:42;;;;;;;24.00;13.57;;;-1.30;99.90;;;;;;8369367;28;20277;-79
2022/11/21 03:59:43;;;;;;;28.47;13.07;;;-1.30;99.90;;;;;;8368789;28;20617;-78
2022/11/21 04:03:45;;;;;;;35.47;16.17;;;-1.20;99.90;;;;;;8367989;28;20185;-78
2022/11/21 04:07:46;;;;;;;35.37;17.70;;;-1.20;99.90;;;;;;8367835;28;20181;-78
2022/11/21 04:11:46;;;;;;;29.93;15.20;;;-1.10;99.90;;;;;;8365105;28;20239;-78
2022/11/21 04:15:47;;;;;;;29.73;15.00;;;-1.10;99.90;;;;;;8366036;28;20253;-78
2022/11/21 04:19:48;;;;;;;35.60;16.97;;;-1.00;99.90;;;;;;8367071;28;20181;-78
2022/11/21 04:23:49;;;;;;;71.13;30.00;;;-1.00;99.90;;;;;;8370285;28;20191;-78
2022/11/21 04:27:50;;;;;;;74.47;28.47;;;-1.00;99.90;;;;;;8366479;28;20202;-79
2022/11/21 04:31:50;;;;;;;39.87;18.37;;;-1.00;99.90;;;;;;8374059;28;20200;-78
2022/11/21 04:35:51;;;;;;;28.33;14.87;;;-1.00;99.90;;;;;;8368972;28;20177;-78
2022/11/21 04:39:52;;;;;;;31.77;14.87;;;-1.00;99.90;;;;;;8363220;28;20169;-78
2022/11/21 04:43:53;;;;;;;31.27;15.13;;;-0.90;99.90;;;;;;8371391;28;20185;-78
2022/11/21 04:47:53;;;;;;;28.17;14.70;;;-0.90;99.90;;;;;;8364137;28;20291;-78
2022/11/21 04:51:54;;;;;;;30.10;14.83;;;-0.80;99.90;;;;;;8364140;28;20205;-78
2022/11/21 04:55:55;;;;;;;28.93;14.63;;;-0.80;99.90;;;;;;8364535;28;20178;-78
2022/11/21 04:59:57;;;;;;;28.23;15.70;;;-0.80;99.90;;;;;;8362359;28;20427;-78
2022/11/21 05:03:57;;;;;;;29.57;15.53;;;-0.70;99.90;;;;;;8367134;28;20303;-78
2022/11/21 05:07:59;;;;;;;25.57;14.17;;;-0.70;99.90;;;;;;8373693;28;20184;-78
2022/11/21 05:16:19;;;;;;;28.27;14.03;;;-0.60;99.90;;;;;;8365928;28;20227;-78
2022/11/21 05:20:20;;;;;;;31.13;16.27;;;-0.60;99.90;;;;;;8367352;28;20178;-78
2022/11/21 05:24:20;;;;;;;30.17;16.33;;;-0.60;99.90;;;;;;8364041;28;20180;-78
2022/11/21 05:28:21;;;;;;;42.63;24.30;;;-0.50;99.90;;;;;;8374062;28;20220;-77
2022/11/21 05:32:23;;;;;;;32.17;19.63;;;-0.50;99.90;;;;;;8372761;28;20248;-78
2022/11/21 05:36:24;;;;;;;37.40;21.53;;;-0.50;99.90;;;;;;8366241;28;20197;-78
2022/11/21 05:40:25;;;;;;;33.47;19.83;;;-0.40;99.90;;;;;;8367861;28;20255;-77
2022/11/21 05:44:26;;;;;;;29.97;18.37;;;-0.40;99.90;;;;;;8374075;28;20220;-77
2022/11/21 05:48:26;;;;;;;31.57;18.27;;;-0.40;99.90;;;;;;8372373;28;20236;-78
2022/11/21 05:52:27;;;;;;;35.47;17.63;;;-0.40;99.90;;;;;;8371394;28;20500;-78
2022/11/21 05:56:28;;;;;;;45.93;22.67;;;-0.30;99.90;;;;;;8377980;28;20197;-78
2022/11/21 06:00:29;;;;;;;42.97;21.83;;;-0.30;99.90;;;;;;8377280;28;20219;-78
2022/11/21 06:04:30;;;;;;;34.47;17.77;;;-0.30;99.90;;;;;;8370463;28;20196;-78
2022/11/21 06:08:37;;;;;;;39.27;19.30;;;-0.30;99.90;;;;;;8366503;28;20264;-78
2022/11/21 06:12:38;;;;;;;40.63;19.27;;;-0.20;99.90;;;;;;8369951;28;20209;-78
2022/11/21 06:16:38;;;;;;;59.70;25.83;;;-0.20;99.90;;;;;;8372647;28;20207;-78
2022/11/21 06:20:39;;;;;;;40.33;20.20;;;-0.10;99.90;;;;;;8381258;28;20185;-78
2022/11/21 06:24:40;;;;;;;44.40;27.37;;;-0.10;99.90;;;;;;8375908;28;20173;-77
2022/11/21 06:28:42;;;;;;;52.67;28.37;;;0.00;99.90;;;;;;8370990;28;20219;-78
2022/11/21 06:32:43;;;;;;;41.33;20.73;;;0.00;99.90;;;;;;8372445;28;20212;-78
2022/11/21 06:36:44;;;;;;;33.23;19.97;;;0.10;99.90;;;;;;8366673;28;20263;-78
2022/11/21 06:40:45;;;;;;;37.00;20.80;;;0.10;99.90;;;;;;8370592;28;20194;-78
2022/11/21 06:44:46;;;;;;;56.13;27.57;;;0.20;99.90;;;;;;8369202;28;20514;-78
2022/11/21 06:48:47;;;;;;;61.90;32.30;;;0.20;99.90;;;;;;8367635;28;20178;-78
2022/11/21 06:52:48;;;;;;;45.97;24.33;;;0.20;99.90;;;;;;8372460;28;20197;-77
2022/11/21 06:56:51;;;;;;;36.80;19.53;;;0.30;99.90;;;;;;8370521;28;20200;-79
2022/11/21 07:00:52;;;;;;;38.27;19.73;;;0.40;99.90;;;;;;8375006;28;20182;-77
2022/11/21 07:04:53;;;;;;;31.20;17.27;;;0.40;99.90;;;;;;8368734;28;20177;-78
2022/11/21 07:08:54;;;;;;;29.50;15.57;;;0.40;99.90;;;;;;8369616;28;20231;-78
2022/11/21 07:17:18;;;;;;;33.23;19.27;;;0.60;99.90;;;;;;8368326;28;20205;-77
2022/11/21 07:21:18;;;;;;;40.10;20.47;;;0.70;99.90;;;;;;8376766;28;20190;-77
2022/11/21 07:25:19;;;;;;;44.90;25.20;;;0.70;99.90;;;;;;8366743;28;20182;-77
2022/11/21 07:29:20;;;;;;;42.93;23.90;;;0.80;99.90;;;;;;8369481;28;20259;-76
2022/11/21 07:33:21;;;;;;;40.87;22.00;;;0.90;99.90;;;;;;8371659;28;20205;-79
2022/11/21 07:37:22;;;;;;;36.63;19.47;;;0.90;99.90;;;;;;8371188;28;20180;-78
2022/11/21 07:41:22;;;;;;;32.77;17.87;;;0.90;99.90;;;;;;8374575;28;20185;-78
2022/11/21 07:45:23;;;;;;;29.07;16.67;;;0.90;99.90;;;;;;8365973;28;20185;-77
2022/11/21 07:49:24;;;;;;;57.97;27.13;;;0.90;99.90;;;;;;8380854;28;20201;-78
2022/11/21 07:53:25;;;;;;;52.73;26.57;;;1.00;99.90;;;;;;8370858;28;20307;-77
2022/11/21 07:57:25;;;;;;;56.87;29.67;;;1.00;99.90;;;;;;8371059;28;20295;-77
2022/11/21 08:01:26;;;;;;;62.90;35.87;;;1.20;99.90;;;;;;8369029;28;20189;-78
2022/11/21 08:05:27;;;;;;;85.43;48.17;;;1.30;99.90;;;;;;8365643;28;20240;-77
2022/11/21 08:09:28;;;;;;;115.17;59.50;;;1.30;99.90;;;;;;8367030;28;20193;-77
2022/11/21 08:13:29;;;;;;;102.33;57.90;;;1.40;99.90;;;;;;8363711;28;20242;-77
2022/11/21 08:17:29;;;;;;;134.83;74.50;;;1.50;99.90;;;;;;8367974;28;20182;-77
2022/11/21 08:21:30;;;;;;;113.30;64.27;;;1.70;99.90;;;;;;8366497;28;20196;-78
2022/11/21 08:25:33;;;;;;;112.93;63.83;;;1.70;99.90;;;;;;8367270;28;20191;-77
2022/11/21 08:29:34;;;;;;;181.37;82.30;;;1.70;99.90;;;;;;8365825;28;20239;-78
2022/11/21 08:33:35;;;;;;;78.97;45.00;;;1.70;99.90;;;;;;8361168;28;20217;-78
2022/11/21 08:37:36;;;;;;;68.10;37.93;;;1.60;99.90;;;;;;8366922;28;20217;-77
2022/11/21 08:45:56;;;;;;;148.07;61.20;;;1.50;99.90;;;;;;8362064;28;20197;-78
2022/11/21 08:49:56;;;;;;;167.73;73.20;;;1.50;99.90;;;;;;8362093;28;20185;-78
2022/11/21 08:53:57;;;;;;;211.77;86.53;;;1.60;99.90;;;;;;8364403;28;20212;-77
2022/11/21 08:57:58;;;;;;;206.23;86.07;;;1.70;99.90;;;;;;8364080;28;20224;-77
2022/11/21 09:01:59;;;;;;;186.10;85.47;;;1.70;99.90;;;;;;8364347;28;20200;-77
2022/11/21 09:06:00;;;;;;;99.67;49.37;;;1.70;99.90;;;;;;8365053;28;20193;-78
2022/11/21 09:10:01;;;;;;;109.60;55.97;;;1.60;99.90;;;;;;8366057;28;20198;-77
2022/11/21 09:18:21;;;;;;;95.87;49.40;;;1.40;99.90;;;;;;8364691;28;20180;-77
2022/11/21 09:22:24;;;;;;;86.17;45.07;;;1.50;99.90;;;;;;8365359;28;20209;-78
2022/11/21 09:26:25;;;;;;;85.83;46.90;;;1.60;99.90;;;;;;8369204;28;20192;-78
2022/11/21 09:30:26;;;;;;;77.97;42.07;;;1.60;99.90;;;;;;8365610;28;20209;-77
2022/11/21 09:34:27;;;;;;;65.67;38.03;;;1.60;99.90;;;;;;8370828;28;20273;-78
2022/11/21 09:38:28;;;;;;;83.57;45.20;;;1.70;99.90;;;;;;8370105;28;20276;-77
2022/11/21 09:43:16;;;;;;;68.70;39.53;;;1.60;99.90;;;;;;8366744;28;20268;-78
2022/11/21 09:47:23;;;;;;;68.80;40.47;;;1.60;99.90;;;;;;8369400;28;20181;-78
2022/11/21 09:51:26;;;;;;;70.83;38.93;;;1.70;99.90;;;;;;8372145;28;20214;-79
2022/11/21 09:55:45;;;;;;;69.37;40.07;;;1.80;99.90;;;;;;8364286;28;20188;-78
2022/11/21 09:59:47;;;;;;;66.80;36.90;;;1.90;99.90;;;;;;8368302;28;20635;-78
2022/11/21 10:04:23;;;;;;;31.57;18.17;;;2.00;99.90;;;;;;8364442;28;20265;-78
2022/11/21 10:08:53;;;;;;;14.07;9.13;;;2.10;99.90;;;;;;8365815;28;20177;-79
2022/11/21 10:13:28;;;;;;;22.47;9.07;;;2.10;99.90;;;;;;8372018;28;20209;-77
2022/11/21 10:18:00;;;;;;;12.77;8.53;;;2.10;99.90;;;;;;8367830;28;20250;-78
2022/11/21 10:22:40;;;;;;;14.07;8.37;;;2.10;99.90;;;;;;8366616;28;20177;-77
2022/11/21 10:26:52;;;;;;;15.93;8.53;;;2.10;99.90;;;;;;8376939;28;20181;-77
2022/11/21 10:30:55;;;;;;;16.07;8.83;;;2.10;99.90;;;;;;8371099;28;20208;-77
2022/11/21 10:35:01;;;;;;;15.77;9.37;;;2.00;99.90;;;;;;8367696;28;20596;-78
2022/11/21 10:39:33;;;;;;;12.70;8.10;;;2.00;99.90;;;;;;8366267;28;20267;-78
2022/11/21 10:48:08;;;;;;;14.20;9.40;;;1.80;99.90;;;;;;8368884;28;20199;-77
2022/11/21 10:52:22;;;;;;;17.83;11.03;;;1.70;99.90;;;;;;8369065;28;20205;-77
2022/11/21 10:56:25;;;;;;;18.50;10.43;;;1.60;99.90;;;;;;8376469;28;20185;-78
2022/11/21 11:00:27;;;;;;;16.87;10.27;;;1.50;99.90;;;;;;8367702;28;20193;-78
2022/11/21 11:04:31;;;;;;;19.73;10.60;;;1.40;99.90;;;;;;8373544;28;20194;-77
2022/11/21 11:08:50;;;;;;;19.83;11.37;;;1.30;99.90;;;;;;8378038;28;20224;-77
2022/11/21 11:17:14;;;;;;;23.23;12.90;;;1.20;99.90;;;;;;8368679;28;20262;-78
2022/11/21 11:21:23;;;;;;;20.07;11.87;;;1.10;99.90;;;;;;8365379;28;20201;-77
2022/11/21 11:25:24;;;;;;;19.63;11.83;;;1.10;99.90;;;;;;8370431;28;20257;-76
2022/11/21 11:29:34;;;;;;;18.70;11.97;;;1.00;99.90;;;;;;8374536;28;20231;-77
2022/11/21 11:33:37;;;;;;;22.53;12.23;;;1.00;99.90;;;;;;8371341;28;20239;-78
2022/11/21 11:37:47;;;;;;;24.50;14.17;;;1.00;99.90;;;;;;8384280;28;20182;-78
2022/11/21 11:51:08;;;;;;;21.50;13.33;;;0.70;99.90;;;;;;8365911;28;20212;-79
2022/11/21 11:55:22;;;;;;;23.57;13.90;;;0.60;99.90;;;;;;8368285;28;20177;-78
2022/11/21 11:59:57;;;;;;;22.07;13.30;;;0.60;99.90;;;;;;8373242;28;20282;-79
2022/11/21 12:04:05;;;;;;;24.30;13.77;;;0.60;99.90;;;;;;8364591;28;20190;-78
2022/11/21 12:08:25;;;;;;;21.57;13.73;;;0.50;99.90;;;;;;8363591;28;20213;-78
2022/11/21 12:12:41;;;;;;;20.47;12.53;;;0.50;99.90;;;;;;8365480;28;20205;-79
2022/11/21 12:16:42;;;;;;;24.97;13.30;;;0.50;99.90;;;;;;8367747;28;20178;-80
2022/11/21 12:21:01;;;;;;;21.43;12.30;;;0.40;99.90;;;;;;8367264;28;20185;-76
2022/11/21 12:25:02;;;;;;;20.57;12.17;;;0.40;99.90;;;;;;8375004;28;20193;-77
2022/11/21 12:29:22;;;;;;;20.23;11.33;;;0.40;99.90;;;;;;8366145;28;20700;-76
2022/11/21 12:33:23;;;;;;;19.30;11.10;;;0.40;99.90;;;;;;8366800;28;20201;-78
2022/11/21 12:37:36;;;;;;;15.77;9.87;;;0.30;99.90;;;;;;8351991;28;20254;-79
2022/11/21 12:46:06;;;;;;;15.97;10.50;;;0.30;99.90;;;;;;8363710;28;20235;-78
2022/11/21 12:54:55;;;;;;;19.97;11.37;;;0.20;99.90;;;;;;8366222;28;20212;-78
2022/11/21 12:58:56;;;;;;;23.40;13.87;;;0.10;99.90;;;;;;8359787;28;20198;-77
2022/11/21 13:03:19;;;;;;;21.57;12.33;;;0.10;99.90;;;;;;8371125;28;20301;-77
2022/11/21 13:07:21;;;;;;;18.50;10.70;;;0.10;99.90;;;;;;8366065;28;20176;-77
2022/11/21 13:16:15;;;;;;;21.40;10.70;;;0.10;99.90;;;;;;8365667;28;20181;-77
2022/11/21 13:20:19;;;;;;;19.40;10.43;;;0.10;99.90;;;;;;8365372;28;20192;-77
2022/11/21 13:24:46;;;;;;;16.60;9.77;;;0.10;99.90;;;;;;8373295;28;20208;-77
2022/11/21 13:28:47;;;;;;;17.63;10.10;;;0.20;99.90;;;;;;8380003;28;20240;-79
2022/11/21 13:32:53;;;;;;;17.83;10.43;;;0.20;99.90;;;;;;8372382;28;20209;-78
2022/11/21 13:36:53;;;;;;;23.07;11.90;;;0.10;99.90;;;;;;8371040;28;20171;-79
2022/11/21 13:45:37;;;;;;;21.27;10.83;;;0.20;99.90;;;;;;8369110;28;20283;-78
2022/11/21 13:50:06;;;;;;;18.77;10.07;;;0.20;99.90;;;;;;8369617;28;20192;-78
2022/11/21 13:54:07;;;;;;;16.73;10.37;;;0.30;99.90;;;;;;8386196;28;20289;-77
2022/11/21 13:58:38;;;;;;;20.57;11.23;;;0.40;99.90;;;;;;8376816;28;20196;-77
2022/11/21 14:03:01;;;;;;;22.30;10.77;;;0.40;99.90;;;;;;8374028;28;20181;-77
2022/11/21 14:07:25;;;;;;;20.87;10.87;;;0.40;99.90;;;;;;8369099;28;20185;-77
2022/11/21 14:11:40;;;;;;;17.27;9.73;;;0.40;99.90;;;;;;8370713;28;20216;-78
2022/11/21 14:15:57;;;;;;;21.57;11.60;;;0.50;99.90;;;;;;8370498;28;20248;-77
2022/11/21 14:20:06;;;;;;;19.53;11.53;;;0.40;99.90;;;;;;8371347;28;20180;-78
2022/11/21 14:24:16;;;;;;;20.40;12.40;;;0.50;99.90;;;;;;8371749;28;20236;-78
2022/11/21 14:28:24;;;;;;;18.73;11.40;;;0.40;99.90;;;;;;8371832;28;20209;-78
2022/11/21 14:32:30;;;;;;;18.93;10.93;;;0.30;99.90;;;;;;8366169;28;20233;-76
2022/11/21 14:36:31;;;;;;;15.73;9.67;;;0.20;99.90;;;;;;8375365;28;20174;-77
2022/11/21 14:40:32;;;;;;;19.87;10.57;;;0.20;99.90;;;;;;8369972;28;20177;-77
2022/11/21 14:44:33;;;;;;;19.83;9.90;;;0.20;99.90;;;;;;8367050;28;20197;-77
2022/11/21 14:48:34;;;;;;;18.77;10.80;;;0.20;99.90;;;;;;8371079;28;20185;-77
2022/11/21 14:52:35;;;;;;;20.53;11.37;;;0.20;99.90;;;;;;8376642;28;20313;-78
2022/11/21 14:56:37;;;;;;;18.50;9.73;;;0.20;99.90;;;;;;8373102;28;20213;-77
2022/11/21 15:00:38;;;;;;;15.87;9.13;;;0.30;99.90;;;;;;8370576;28;20181;-77
2022/11/21 15:04:41;;;;;;;15.80;10.00;;;0.30;99.90;;;;;;8369061;28;20189;-77
2022/11/21 15:08:42;;;;;;;15.00;8.93;;;0.20;99.90;;;;;;8364778;28;20181;-77
2022/11/21 15:12:57;;;;;;;16.30;10.40;;;0.20;99.90;;;;;;8369563;28;20216;-76
2022/11/21 15:17:00;;;;;;;16.97;9.67;;;0.20;99.90;;;;;;8366171;28;20173;-77
2022/11/21 15:21:02;;;;;;;15.83;9.20;;;0.20;99.90;;;;;;8384032;28;20174;-78
2022/11/21 15:25:15;;;;;;;13.23;8.67;;;0.20;99.90;;;;;;8371960;28;20177;-77
2022/11/21 15:29:21;;;;;;;14.70;8.70;;;0.10;99.90;;;;;;8365917;28;20288;-77
2022/11/21 15:33:21;;;;;;;13.47;8.17;;;0.10;99.90;;;;;;8367110;28;20213;-78
2022/11/21 15:37:24;;;;;;;13.07;8.70;;;0.10;99.90;;;;;;8375680;28;20181;-77
2022/11/21 15:41:30;;;;;;;14.53;8.67;;;0.10;99.90;;;;;;8375871;28;20174;-78
2022/11/21 15:45:30;;;;;;;13.17;7.80;;;0.10;99.90;;;;;;8368337;28;20186;-78
2022/11/21 15:49:31;;;;;;;13.97;8.27;;;0.10;99.90;;;;;;8373364;28;20208;-77
2022/11/21 15:53:32;;;;;;;12.90;7.57;;;0.10;99.90;;;;;;8367957;28;20219;-77
2022/11/21 15:57:33;;;;;;;11.30;7.00;;;0.10;99.90;;;;;;8368750;28;20212;-78
2022/11/21 16:01:34;;;;;;;13.83;7.80;;;0.20;99.90;;;;;;8365134;28;20184;-77
2022/11/21 16:05:34;;;;;;;12.47;7.67;;;0.20;99.90;;;;;;8364946;28;20186;-77
2022/11/21 16:09:36;;;;;;;10.57;6.53;;;0.20;99.90;;;;;;8373652;28;20185;-77
2022/11/21 16:13:37;;;;;;;10.37;6.73;;;0.20;99.90;;;;;;8364793;28;20300;-77
2022/11/21 16:17:39;;;;;;;11.90;6.37;;;0.20;99.90;;;;;;8380642;28;20189;-78
2022/11/21 16:21:40;;;;;;;37.37;11.13;;;0.10;99.90;;;;;;8370722;28;20218;-77
2022/11/21 16:25:52;;;;;;;14.27;8.40;;;0.10;99.90;;;;;;8364826;28;20190;-78
2022/11/21 16:29:53;;;;;;;24.47;10.20;;;0.00;99.90;;;;;;8369455;28;20204;-77
2022/11/21 16:33:54;;;;;;;14.00;8.00;;;0.00;99.90;;;;;;8364692;28;20211;-77
2022/11/21 16:37:55;;;;;;;14.67;7.83;;;0.00;99.90;;;;;;8364271;28;20185;-77
2022/11/21 16:41:56;;;;;;;10.23;6.53;;;0.00;99.90;;;;;;8367694;28;20177;-78
2022/11/21 16:46:06;;;;;;;8.90;5.70;;;0.00;99.90;;;;;;8367286;28;20212;-78
2022/11/21 16:50:07;;;;;;;15.83;8.57;;;0.00;99.90;;;;;;8366384;28;20190;-79
2022/11/21 16:54:07;;;;;;;9.07;5.70;;;0.00;99.90;;;;;;8366954;28;20240;-77
2022/11/21 16:58:08;;;;;;;9.27;5.93;;;0.00;99.90;;;;;;8365748;28;20198;-77
2022/11/21 17:02:11;;;;;;;10.33;5.97;;;0.00;99.90;;;;;;8362371;28;20322;-79
2022/11/21 17:06:14;;;;;;;11.93;7.10;;;0.00;99.90;;;;;;8372467;28;20182;-77
2022/11/21 17:10:15;;;;;;;12.80;8.03;;;0.00;99.90;;;;;;8370728;28;20182;-78
2022/11/21 17:14:16;;;;;;;14.27;8.30;;;0.00;99.90;;;;;;8364133;28;20217;-79
2022/11/21 17:18:16;;;;;;;18.03;10.83;;;0.00;99.90;;;;;;8365045;28;20173;-78
2022/11/21 17:22:19;;;;;;;42.40;17.13;;;0.00;99.90;;;;;;8365267;28;20212;-79
2022/11/21 17:26:22;;;;;;;42.70;17.70;;;-0.10;99.90;;;;;;8371777;28;20519;-78
2022/11/21 17:30:23;;;;;;;31.63;15.10;;;-0.10;99.90;;;;;;8374643;28;20193;-79
2022/11/21 17:34:24;;;;;;;26.20;12.17;;;-0.20;99.90;;;;;;8372866;28;20289;-79
2022/11/21 17:38:26;;;;;;;18.27;9.07;;;-0.10;99.90;;;;;;8379726;28;20177;-76
2022/11/21 17:42:27;;;;;;;14.13;7.57;;;-0.10;99.90;;;;;;8373814;28;20239;-76
2022/11/21 17:46:28;;;;;;;18.27;9.27;;;-0.10;99.90;;;;;;8372060;28;20193;-77
2022/11/21 17:50:29;;;;;;;33.33;15.70;;;-0.10;99.90;;;;;;8369092;28;20186;-79
2022/11/21 17:54:30;;;;;;;87.13;38.77;;;-0.20;99.90;;;;;;8377018;28;20335;-77
2022/11/21 17:58:32;;;;;;;97.20;47.67;;;-0.40;99.90;;;;;;8384928;28;20201;-77
2022/11/21 18:02:32;;;;;;;93.23;46.40;;;-0.60;99.90;;;;;;8364465;28;20204;-76
2022/11/21 18:06:36;;;;;;;96.33;49.77;;;-0.90;99.90;;;;;;8372175;28;20181;-77
2022/11/21 18:10:37;;;;;;;87.43;48.13;;;-1.10;99.90;;;;;;8375286;28;20227;-78
2022/11/21 18:14:37;;;;;;;95.43;47.83;;;-1.30;99.90;;;;;;8375183;28;20383;-78
2022/11/21 18:18:39;;;;;;;107.13;47.63;;;-1.50;99.90;;;;;;8370007;28;20203;-78
2022/11/21 18:22:40;;;;;;;103.87;46.50;;;-1.60;99.90;;;;;;8369944;28;20197;-78
2022/11/21 18:26:41;;;;;;;91.63;41.97;;;-1.80;99.90;;;;;;8375167;28;20215;-78
2022/11/21 18:30:42;;;;;;;68.07;29.97;;;-2.10;99.90;;;;;;8371781;28;20269;-79
2022/11/21 18:34:43;;;;;;;43.67;22.07;;;-2.20;99.90;;;;;;8382359;28;20445;-80
2022/11/21 18:38:44;;;;;;;31.17;16.50;;;-2.40;99.90;;;;;;8375170;28;20255;-79
2022/11/21 18:42:45;;;;;;;21.43;11.67;;;-2.60;99.90;;;;;;8369945;28;20220;-80
2022/11/21 18:46:46;;;;;;;23.00;11.07;;;-2.70;99.90;;;;;;8374421;28;20276;-79
2022/11/21 18:50:47;;;;;;;29.47;14.97;;;-2.80;99.90;;;;;;8375276;28;20189;-79
2022/11/21 18:54:48;;;;;;;28.43;14.03;;;-2.90;99.90;;;;;;8369433;28;20217;-79
2022/11/21 18:58:49;;;;;;;18.67;11.00;;;-3.00;99.90;;;;;;8370051;28;20195;-80
2022/11/21 19:02:50;;;;;;;13.20;8.33;;;-3.00;99.90;;;;;;8370829;28;20182;-80
2022/11/21 19:06:52;;;;;;;13.13;7.70;;;-3.10;99.90;;;;;;8369072;28;20189;-78
2022/11/21 19:10:53;;;;;;;14.63;8.47;;;-3.20;99.90;;;;;;8379631;28;20189;-80
2022/11/21 19:14:54;;;;;;;13.97;8.13;;;-3.30;99.90;;;;;;8373883;28;20223;-80
2022/11/21 19:18:55;;;;;;;15.63;8.07;;;-3.30;99.90;;;;;;8372097;28;20428;-80
2022/11/21 19:22:56;;;;;;;14.10;7.73;;;-3.40;99.90;;;;;;8369206;28;20635;-79
2022/11/21 19:26:57;;;;;;;15.57;8.27;;;-3.40;99.90;;;;;;8367673;28;20277;-78
2022/11/21 19:31:00;;;;;;;14.33;8.13;;;-3.40;99.90;;;;;;8381029;28;20283;-78
2022/11/21 19:35:01;;;;;;;14.77;8.77;;;-3.40;99.90;;;;;;8375182;28;20290;-78
2022/11/21 19:39:01;;;;;;;16.47;9.27;;;-3.40;99.90;;;;;;8374198;28;20182;-78
2022/11/21 19:43:03;;;;;;;13.53;8.03;;;-3.40;99.90;;;;;;8377669;28;20262;-78
2022/11/21 19:47:04;;;;;;;14.37;8.23;;;-3.40;99.90;;;;;;8371240;28;20296;-78
2022/11/21 19:51:05;;;;;;;17.17;8.43;;;-3.50;99.90;;;;;;8372614;28;20185;-78
2022/11/21 19:55:06;;;;;;;16.57;7.87;;;-3.60;99.90;;;;;;8390563;28;20219;-79
2022/11/21 19:59:11;;;;;;;15.57;9.20;;;-3.70;99.90;;;;;;8374145;28;20207;-79
2022/11/21 20:03:12;;;;;;;19.37;10.60;;;-3.70;99.90;;;;;;8375378;28;20185;-79
2022/11/21 20:07:14;;;;;;;19.37;10.43;;;-3.80;99.90;;;;;;8378796;28;20191;-78
2022/11/21 20:11:15;;;;;;;16.20;10.20;;;-3.90;99.90;;;;;;8368558;28;20189;-79
2022/11/21 20:15:18;;;;;;;17.83;10.87;;;-3.90;99.90;;;;;;8375107;28;20231;-78
2022/11/21 20:19:21;;;;;;;18.60;10.77;;;-4.00;99.90;;;;;;8373255;28;20192;-78
2022/11/21 20:23:22;;;;;;;19.90;10.13;;;-4.00;99.90;;;;;;8390077;28;20231;-78
2022/11/21 20:27:23;;;;;;;17.30;10.20;;;-4.00;99.90;;;;;;8371353;28;20210;-79
2022/11/21 20:31:26;;;;;;;23.07;12.47;;;-4.00;99.90;;;;;;8372862;28;20213;-78
2022/11/21 20:35:27;;;;;;;24.17;13.23;;;-4.00;99.90;;;;;;8373932;28;20174;-78
2022/11/21 20:39:31;;;;;;;26.30;14.27;;;-4.00;99.90;;;;;;8375479;28;20201;-78
2022/11/21 20:43:31;;;;;;;23.07;12.43;;;-3.90;99.90;;;;;;8373806;28;20189;-79
2022/11/21 20:47:36;;;;;;;24.77;14.10;;;-3.90;99.90;;;;;;8373682;28;20291;-79
2022/11/21 20:51:37;;;;;;;34.80;17.30;;;-3.90;99.90;;;;;;8371478;28;20204;-78
2022/11/21 20:55:38;;;;;;;31.03;15.50;;;-3.80;99.90;;;;;;8373967;28;20226;-79
2022/11/21 20:59:39;;;;;;;31.17;14.40;;;-3.70;99.90;;;;;;8369430;28;20224;-79
2022/11/21 21:03:40;;;;;;;33.20;16.43;;;-3.60;99.90;;;;;;8368534;28;20184;-78
2022/11/21 21:07:41;;;;;;;30.77;16.13;;;-3.60;99.90;;;;;;8365865;28;20189;-80
2022/11/21 21:11:42;;;;;;;30.43;14.60;;;-3.50;99.90;;;;;;8367858;28;20272;-79
2022/11/21 21:15:43;;;;;;;24.07;13.70;;;-3.50;99.90;;;;;;8368664;28;20185;-79
2022/11/21 21:19:44;;;;;;;29.00;15.53;;;-3.50;99.90;;;;;;8372446;28;20186;-79
2022/11/21 21:23:52;;;;;;;26.63;14.90;;;-3.50;99.90;;;;;;8370018;28;20211;-80
2022/11/21 21:27:53;;;;;;;29.70;15.73;;;-3.50;99.90;;;;;;8380129;28;20198;-79
2022/11/21 21:31:54;;;;;;;52.10;21.70;;;-3.50;99.90;;;;;;8374589;28;20213;-80
2022/11/21 21:35:55;;;;;;;33.47;18.20;;;-3.50;99.90;;;;;;8366515;28;20181;-81
2022/11/21 21:39:56;;;;;;;35.53;17.03;;;-3.40;99.90;;;;;;8368333;28;20177;-80